Time;durP1;ratioP1;P1;durP2;ratioP2;P2;SDS_P1;SDS_P2;PMS_P1;PMS_P2;Temp;Humidity;BMP_temperature;BMP_pressure;BME280_temperature;BME280_humidity;BME280_pressure;Samples;Min_cycle;Max_cycle;Signal;HPM_P1;HPM_P2
2021/10/20 00:00:57;;;;;;;16.50;11.10;;;;;;;11.44;70.14;100300.11;139180;1189;108488;-78
2021/10/20 00:04:03;;;;;;;15.10;11.20;;;;;;;11.47;69.90;100300.34;139163;1189;109288;-76
2021/10/20 00:07:08;;;;;;;16.00;12.00;;;;;;;11.51;69.80;100295.95;139095;1190;108511;-77
2021/10/20 00:10:15;;;;;;;17.40;11.70;;;;;;;11.53;70.03;100294.70;139041;1189;108449;-77
2021/10/20 00:13:21;;;;;;;16.80;11.60;;;;;;;11.54;70.01;100289.89;139066;1190;108487;-73
2021/10/20 00:16:28;;;;;;;15.70;11.50;;;;;;;11.54;69.88;100283.88;139008;1190;108476;-73
2021/10/20 00:19:34;;;;;;;17.00;11.90;;;;;;;11.52;69.87;100277.34;139044;1190;108513;-74
2021/10/20 00:22:40;;;;;;;19.20;11.30;;;;;;;11.50;70.24;100276.14;139029;1190;108059;-74
2021/10/20 00:25:47;;;;;;;15.00;10.70;;;;;;;11.48;70.09;100269.52;138996;1190;108450;-74
2021/10/20 00:28:52;;;;;;;16.00;11.40;;;;;;;11.49;69.92;100266.89;139024;1190;108441;-75
2021/10/20 00:31:58;;;;;;;14.80;10.70;;;;;;;11.54;70.14;100257.73;139010;1183;108405;-75
2021/10/20 00:35:03;;;;;;;15.90;11.80;;;;;;;11.57;70.18;100253.98;138985;1189;108543;-74
2021/10/20 00:38:08;;;;;;;15.40;11.30;;;;;;;11.59;70.10;100244.38;138969;1190;108420;-74
2021/10/20 00:41:14;;;;;;;18.00;12.40;;;;;;;11.59;70.08;100240.64;138928;1190;108639;-74
2021/10/20 00:44:19;;;;;;;17.90;11.60;;;;;;;11.57;70.09;100238.70;138976;1190;108382;-74
2021/10/20 00:47:27;;;;;;;17.20;12.10;;;;;;;11.54;69.94;100230.04;138993;1189;108564;-74
2021/10/20 00:50:32;;;;;;;18.30;12.10;;;;;;;11.52;70.16;100228.33;139015;1190;109307;-74
2021/10/20 00:53:37;;;;;;;15.00;10.80;;;;;;;11.51;70.11;100225.56;138954;1190;108368;-74
2021/10/20 00:56:43;;;;;;;16.70;11.70;;;;;;;11.54;70.12;100222.25;138954;1183;108384;-72
2021/10/20 00:59:49;;;;;;;15.40;11.20;;;;;;;11.59;70.07;100220.33;139018;1183;109114;-73
2021/10/20 01:02:56;;;;;;;16.60;11.20;;;;;;;11.64;70.16;100222.80;138971;1183;108240;-73
2021/10/20 01:06:04;;;;;;;17.40;11.70;;;;;;;11.69;70.36;100222.11;139046;1189;108587;-75
2021/10/20 01:09:09;;;;;;;15.90;11.40;;;;;;;11.69;70.38;100210.85;138993;1189;107552;-79
2021/10/20 01:12:17;;;;;;;14.80;10.70;;;;;;;11.65;70.53;100206.30;139020;1189;108408;-78
2021/10/20 01:15:25;;;;;;;16.10;10.80;;;;;;;11.64;70.99;100197.33;138969;1194;108429;-78
2021/10/20 01:18:31;;;;;;;16.50;11.80;;;;;;;11.64;71.19;100196.77;139107;1183;107424;-78
2021/10/20 01:21:37;;;;;;;14.40;11.20;;;;;;;11.66;71.13;100184.24;138996;1183;108386;-76
2021/10/20 01:24:42;;;;;;;18.80;12.40;;;;;;;11.70;71.00;100183.98;138921;1190;108364;-77
2021/10/20 01:27:49;;;;;;;18.20;12.30;;;;;;;11.71;71.10;100174.23;138995;1189;108701;-77
2021/10/20 01:30:54;;;;;;;19.70;12.60;;;;;;;11.71;71.03;100174.48;139152;1184;108356;-76
2021/10/20 01:33:59;;;;;;;14.90;11.40;;;;;;;11.68;71.24;100167.71;138984;1189;108432;-77
2021/10/20 01:37:06;;;;;;;13.80;10.30;;;;;;;11.64;71.46;100168.07;138987;1177;108355;-77
2021/10/20 01:40:13;;;;;;;18.60;12.10;;;;;;;11.65;71.40;100169.73;139012;1183;108651;-76
2021/10/20 01:43:19;;;;;;;15.30;11.30;;;;;;;11.71;71.40;100165.75;138973;1190;108482;-77
2021/10/20 01:46:24;;;;;;;15.70;11.10;;;;;;;11.73;71.50;100154.77;138991;1184;108381;-79
2021/10/20 01:49:29;;;;;;;15.70;11.00;;;;;;;11.75;71.39;100151.17;139002;1184;108150;-77
2021/10/20 01:52:35;;;;;;;16.20;11.60;;;;;;;11.77;71.34;100144.98;138997;1183;108445;-77
2021/10/20 01:55:40;;;;;;;16.20;11.00;;;;;;;11.74;71.56;100152.39;138997;1190;108487;-76
2021/10/20 01:58:46;;;;;;;15.50;11.10;;;;;;;11.71;71.65;100154.92;138995;1193;108256;-77
2021/10/20 02:01:52;;;;;;;13.90;9.80;;;;;;;11.70;71.94;100151.45;138956;1190;108458;-78
2021/10/20 02:04:57;;;;;;;15.20;10.50;;;;;;;11.72;71.82;100147.41;139012;1183;106922;-76
2021/10/20 02:08:04;;;;;;;15.60;11.20;;;;;;;11.77;71.69;100135.81;138995;1190;108447;-73
2021/10/20 02:11:10;;;;;;;14.50;10.40;;;;;;;11.82;71.71;100127.39;138972;1183;108588;-76
2021/10/20 02:14:15;;;;;;;15.40;10.80;;;;;;;11.84;71.66;100122.64;139049;1190;109136;-77
2021/10/20 02:17:21;;;;;;;15.90;11.10;;;;;;;11.86;71.82;100114.23;139005;1190;108593;-78
2021/10/20 02:20:26;;;;;;;13.80;10.20;;;;;;;11.86;71.64;100107.65;138986;1190;108460;-78
2021/10/20 02:23:32;;;;;;;12.00;8.90;;;;;;;11.85;71.71;100102.19;139049;1183;107835;-76
2021/10/20 02:26:37;;;;;;;14.20;10.10;;;;;;;11.89;71.71;100105.98;139054;1184;108262;-76
2021/10/20 02:29:43;;;;;;;14.40;10.50;;;;;;;11.94;71.66;100109.88;139043;1183;108541;-81
2021/10/20 02:32:49;;;;;;;15.80;10.00;;;;;;;11.99;71.75;100103.95;139644;1190;107173;-79
2021/10/20 02:35:54;;;;;;;12.40;9.40;;;;;;;12.04;71.62;100094.92;139414;1187;108426;-79
2021/10/20 02:39:00;;;;;;;14.90;10.20;;;;;;;12.05;71.76;100096.00;138976;1183;107251;-75
2021/10/20 02:42:05;;;;;;;13.40;10.20;;;;;;;12.06;71.62;100089.30;139016;1187;108394;-76
2021/10/20 02:45:14;;;;;;;11.70;8.90;;;;;;;12.06;71.65;100088.80;139148;1189;107824;-78
2021/10/20 02:48:20;;;;;;;12.80;8.60;;;;;;;12.05;71.75;100086.73;139011;1190;108265;-76
2021/10/20 02:51:25;;;;;;;12.10;8.80;;;;;;;12.07;71.61;100083.55;138944;1190;108627;-76
2021/10/20 02:54:31;;;;;;;10.60;8.50;;;;;;;12.12;71.63;100076.56;139112;1183;108871;-78
2021/10/20 02:57:36;;;;;;;13.70;9.20;;;;;;;12.18;71.54;100075.33;139035;1190;108430;-80
2021/10/20 03:00:41;;;;;;;11.50;9.00;;;;;;;12.23;71.54;100081.42;139093;1190;107576;-79
2021/10/20 03:03:47;;;;;;;12.60;8.60;;;;;;;12.24;71.23;100077.77;139063;1190;108386;-76
2021/10/20 03:06:52;;;;;;;11.00;8.50;;;;;;;12.24;71.35;100077.38;138973;1189;108532;-76
2021/10/20 03:09:58;;;;;;;11.10;8.40;;;;;;;12.24;71.44;100073.11;139041;1190;107430;-74
2021/10/20 03:13:03;;;;;;;10.30;7.50;;;;;;;12.23;71.41;100074.42;138938;1190;108769;-73
2021/10/20 03:16:09;;;;;;;10.60;7.80;;;;;;;12.26;71.42;100072.54;138985;1191;109251;-74
2021/10/20 03:19:14;;;;;;;9.90;7.50;;;;;;;12.31;71.44;100071.73;139027;1190;108822;-74
2021/10/20 03:22:19;;;;;;;8.50;7.30;;;;;;;12.38;71.42;100070.37;139118;1183;108349;-73
2021/10/20 03:25:26;;;;;;;10.80;8.10;;;;;;;12.42;71.34;100062.72;139044;1183;108492;-75
2021/10/20 03:28:31;;;;;;;13.60;8.00;;;;;;;12.44;71.22;100055.02;139012;1184;108224;-75
2021/10/20 03:31:37;;;;;;;10.10;8.20;;;;;;;12.44;71.20;100051.25;138959;1183;108539;-73
2021/10/20 03:34:42;;;;;;;9.70;7.50;;;;;;;12.44;71.34;100048.05;138911;1190;108432;-73
2021/10/20 03:37:48;;;;;;;8.30;6.40;;;;;;;12.42;71.35;100042.21;138992;1193;108496;-74
2021/10/20 03:40:53;;;;;;;9.10;7.10;;;;;;;12.41;71.43;100039.85;139001;1190;108375;-78
2021/10/20 03:43:59;;;;;;;9.60;7.50;;;;;;;12.42;71.40;100033.83;139039;1194;108657;-77
2021/10/20 03:47:04;;;;;;;10.10;7.20;;;;;;;12.46;71.36;100039.12;139036;1184;108553;-76
2021/10/20 03:50:11;;;;;;;8.90;7.50;;;;;;;12.51;71.23;100040.30;138947;1183;108383;-76
2021/10/20 03:53:16;;;;;;;9.30;7.10;;;;;;;12.55;71.18;100038.05;138996;1184;107626;-77
2021/10/20 03:56:22;;;;;;;12.00;7.80;;;;;;;12.56;71.14;100039.52;138967;1184;108555;-74
2021/10/20 03:59:27;;;;;;;10.20;7.60;;;;;;;12.55;71.01;100036.46;139022;1189;108650;-73
2021/10/20 04:02:33;;;;;;;9.00;6.80;;;;;;;12.54;71.14;100031.27;138982;1194;108468;-78
2021/10/20 04:05:38;;;;;;;8.90;6.50;;;;;;;12.52;71.15;100024.60;139124;1189;108417;-78
2021/10/20 04:08:43;;;;;;;8.40;6.70;;;;;;;12.54;71.19;100024.40;139422;1189;108617;-77
2021/10/20 04:11:49;;;;;;;10.60;7.30;;;;;;;12.58;71.13;100026.66;138970;1184;107922;-76
2021/10/20 04:14:54;;;;;;;8.60;7.00;;;;;;;12.64;71.08;100020.55;138974;1191;108612;-76
2021/10/20 04:17:59;;;;;;;11.10;7.40;;;;;;;12.67;71.12;100014.63;138978;1183;108583;-76
2021/10/20 04:21:05;;;;;;;9.00;7.40;;;;;;;12.70;71.09;100008.63;139003;1184;108329;-77
2021/10/20 04:24:10;;;;;;;9.60;7.20;;;;;;;12.69;71.04;100011.75;138982;1184;108590;-77
2021/10/20 04:27:16;;;;;;;12.00;7.70;;;;;;;12.67;71.06;100013.92;139032;1184;108602;-76
2021/10/20 04:30:23;;;;;;;11.90;7.00;;;;;;;12.64;71.28;100012.70;139020;1191;108545;-76
2021/10/20 04:33:28;;;;;;;9.50;7.10;;;;;;;12.62;71.49;100014.34;138984;1190;106954;-75
2021/10/20 04:36:33;;;;;;;9.50;6.70;;;;;;;12.61;71.67;100006.58;138977;1190;108438;-75
2021/10/20 04:39:39;;;;;;;11.70;7.40;;;;;;;12.62;71.86;100002.23;138992;1184;108300;-73
2021/10/20 04:42:45;;;;;;;9.80;7.40;;;;;;;12.60;72.29;99990.30;138957;1184;108628;-74
2021/10/20 04:45:53;;;;;;;9.30;7.70;;;;;;;12.60;72.10;100002.40;139017;1184;108517;-74
2021/10/20 04:48:59;;;;;;;9.70;7.50;;;;;;;12.59;72.26;100000.73;138990;1184;108469;-75
2021/10/20 04:52:05;;;;;;;9.90;7.30;;;;;;;12.57;72.25;99990.98;138950;1196;108613;-77
2021/10/20 04:55:12;;;;;;;10.50;7.40;;;;;;;12.55;72.54;99982.23;138981;1190;108425;-77
2021/10/20 04:58:17;;;;;;;9.90;6.90;;;;;;;12.56;72.38;99975.69;138975;1184;109118;-76
2021/10/20 05:01:22;;;;;;;9.40;7.10;;;;;;;12.60;72.58;99972.09;139045;1184;108120;-77
2021/10/20 05:04:28;;;;;;;11.10;7.60;;;;;;;12.64;72.63;99974.66;138998;1183;108556;-79
2021/10/20 05:07:34;;;;;;;9.20;7.20;;;;;;;12.66;72.63;99973.38;138986;1182;108264;-77
2021/10/20 05:10:41;;;;;;;10.00;7.40;;;;;;;12.68;72.68;99973.54;139005;1184;108313;-76
2021/10/20 05:13:46;;;;;;;11.40;7.20;;;;;;;12.68;72.58;99966.90;139102;1197;108517;-77
2021/10/20 05:16:52;;;;;;;11.20;6.80;;;;;;;12.68;72.97;99968.69;139405;1190;108399;-77
2021/10/20 05:19:57;;;;;;;10.50;7.10;;;;;;;12.71;72.98;99969.77;139107;1184;108476;-78
2021/10/20 05:23:03;;;;;;;12.20;7.80;;;;;;;12.74;73.19;99964.38;138978;1183;108572;-79
2021/10/20 05:26:08;;;;;;;10.30;7.40;;;;;;;12.78;73.31;99958.23;139209;1184;108639;-78
2021/10/20 05:29:13;;;;;;;9.70;7.30;;;;;;;12.82;73.05;99956.94;138982;1183;108610;-77
2021/10/20 05:32:19;;;;;;;9.70;7.30;;;;;;;12.83;73.29;99956.36;138979;1183;108198;-76
2021/10/20 05:35:24;;;;;;;9.80;6.80;;;;;;;12.84;73.32;99954.14;139043;1190;108499;-77
2021/10/20 05:38:30;;;;;;;8.80;6.90;;;;;;;12.86;73.35;99952.49;138950;1183;108408;-78
2021/10/20 05:41:35;;;;;;;9.60;6.80;;;;;;;12.92;73.27;99954.52;139100;1184;108350;-78
2021/10/20 05:44:41;;;;;;;9.10;7.40;;;;;;;12.96;73.25;99952.81;139116;1183;108289;-78
2021/10/20 05:47:46;;;;;;;10.50;7.00;;;;;;;12.99;73.31;99956.25;139288;1184;108163;-77
2021/10/20 05:50:51;;;;;;;9.40;7.60;;;;;;;13.01;73.26;99960.32;139106;1190;108588;-76
2021/10/20 05:53:57;;;;;;;13.40;8.50;;;;;;;12.99;73.33;99960.38;138935;1190;108473;-75
2021/10/20 05:57:02;;;;;;;10.30;6.50;;;;;;;12.98;73.32;99960.41;138944;1190;108344;-76
2021/10/20 06:00:11;;;;;;;28.70;17.70;;;;;;;13.02;73.53;99956.30;138976;1183;108481;-76
2021/10/20 06:03:17;;;;;;;32.50;20.80;;;;;;;13.06;73.41;99958.05;139041;1190;108495;-77
2021/10/20 06:06:22;;;;;;;41.70;29.00;;;;;;;13.12;73.40;99955.46;139131;1182;108428;-79
2021/10/20 06:09:28;;;;;;;30.10;20.50;;;;;;;13.15;73.34;99960.64;139042;1184;108476;-78
2021/10/20 06:12:33;;;;;;;49.10;31.10;;;;;;;13.15;73.58;99958.09;139044;1184;108388;-77
2021/10/20 06:15:41;;;;;;;83.40;49.10;;;;;;;13.12;73.54;99959.55;138987;1191;108160;-76
2021/10/20 06:18:47;;;;;;;82.40;45.40;;;;;;;13.12;73.58;99963.80;139188;1190;108592;-78
2021/10/20 06:21:53;;;;;;;22.30;15.30;;;;;;;13.15;73.68;99960.06;139106;1183;108199;-79
2021/10/20 06:24:58;;;;;;;189.50;85.90;;;;;;;13.23;73.75;99962.92;139775;1183;107078;-80
2021/10/20 06:28:04;;;;;;;72.00;34.30;;;;;;;13.32;73.83;99961.31;139467;1190;108471;-78
2021/10/20 06:31:09;;;;;;;302.10;137.00;;;;;;;13.40;73.84;99957.95;139091;1184;108598;-80
2021/10/20 06:34:15;;;;;;;235.80;84.40;;;;;;;13.46;73.80;99953.52;139298;1190;107351;-79
2021/10/20 06:37:23;;;;;;;77.20;33.40;;;;;;;13.53;73.93;99949.41;139326;1190;108644;-80
2021/10/20 06:40:29;;;;;;;367.50;166.60;;;;;;;13.62;73.99;99944.11;139204;1184;107620;-77
2021/10/20 06:43:34;;;;;;;107.70;45.70;;;;;;;13.72;73.75;99942.22;139069;1190;108418;-77
2021/10/20 06:46:40;;;;;;;71.70;33.90;;;;;;;13.83;73.73;99937.69;139601;1184;108475;-77
2021/10/20 06:49:45;;;;;;;51.50;31.50;;;;;;;13.94;73.65;99930.68;139127;1184;108434;-78
2021/10/20 06:52:50;;;;;;;17.80;11.20;;;;;;;14.02;73.64;99933.81;139270;1184;108487;-78
2021/10/20 06:55:56;;;;;;;10.30;7.70;;;;;;;14.09;73.60;99933.21;139192;1184;108780;-76
2021/10/20 06:59:02;;;;;;;9.10;6.30;;;;;;;14.13;73.60;99929.47;139173;1183;108469;-76
2021/10/20 07:02:07;;;;;;;9.30;6.60;;;;;;;14.20;73.40;99928.62;139211;1190;108450;-76
2021/10/20 07:05:13;;;;;;;7.90;6.50;;;;;;;14.28;73.16;99926.39;139100;1183;108610;-77
2021/10/20 07:08:18;;;;;;;9.40;6.80;;;;;;;14.36;73.29;99920.27;139145;1183;108436;-77
2021/10/20 07:11:24;;;;;;;9.60;6.70;;;;;;;14.46;72.99;99911.76;139130;1184;108971;-77
2021/10/20 07:14:29;;;;;;;9.60;6.60;;;;;;;14.53;72.68;99913.33;139248;1184;108409;-76
2021/10/20 07:17:34;;;;;;;8.90;7.00;;;;;;;14.58;72.76;99902.81;139583;1184;108416;-77
2021/10/20 07:20:40;;;;;;;9.30;6.00;;;;;;;14.60;72.68;99908.48;139175;1189;108367;-77
2021/10/20 07:23:45;;;;;;;9.80;8.20;;;;;;;14.67;72.58;99911.55;139090;1191;108209;-76
2021/10/20 07:26:51;;;;;;;19.00;10.30;;;;;;;14.75;72.43;99915.41;138983;1183;107858;-75
2021/10/20 07:29:56;;;;;;;22.10;13.20;;;;;;;14.84;72.63;99913.77;139088;1190;108509;-76
2021/10/20 07:33:01;;;;;;;63.00;28.50;;;;;;;14.97;72.48;99912.39;139195;1182;108490;-74
2021/10/20 07:36:07;;;;;;;34.40;19.70;;;;;;;15.09;72.47;99906.56;139216;1184;107222;-88
2021/10/20 07:39:13;;;;;;;71.00;32.50;;;;;;;15.19;72.29;99902.02;139230;1190;108460;-88
2021/10/20 07:42:19;;;;;;;29.80;20.30;;;;;;;15.25;72.08;99895.89;139360;1184;108222;-85
2021/10/20 07:45:25;;;;;;;59.00;23.90;;;;;;;15.31;72.09;99892.88;139222;1190;108565;-79
2021/10/20 07:48:30;;;;;;;72.30;37.30;;;;;;;15.36;71.97;99892.34;139003;1190;108302;-77
2021/10/20 07:51:36;;;;;;;18.80;12.20;;;;;;;15.39;71.82;99890.52;139090;1187;108558;-80
2021/10/20 07:54:41;;;;;;;12.60;8.50;;;;;;;15.43;71.76;99883.52;139143;1190;108404;-80
2021/10/20 07:57:47;;;;;;;12.10;8.60;;;;;;;15.50;71.70;99883.70;139051;1184;108481;-79
2021/10/20 08:00:52;;;;;;;9.60;7.60;;;;;;;15.61;71.64;99880.19;139133;1190;108349;-80
2021/10/20 08:03:58;;;;;;;9.30;6.60;;;;;;;15.69;71.31;99880.95;139007;1184;108378;-79
2021/10/20 08:07:03;;;;;;;7.90;6.20;;;;;;;15.75;71.35;99874.73;139030;1184;108620;-80
2021/10/20 08:10:10;;;;;;;10.20;7.30;;;;;;;15.81;71.14;99874.20;139004;1183;107762;-79
2021/10/20 08:13:15;;;;;;;11.40;8.10;;;;;;;15.85;71.20;99870.29;139291;1183;108269;-79
2021/10/20 08:16:20;;;;;;;9.10;7.40;;;;;;;15.89;71.17;99879.30;139212;1184;108615;-77
2021/10/20 08:19:26;;;;;;;10.30;7.70;;;;;;;15.95;71.08;99875.31;139134;1184;108527;-80
2021/10/20 08:22:32;;;;;;;39.30;26.50;;;;;;;16.02;71.19;99862.90;139055;1184;108305;-78
2021/10/20 08:25:38;;;;;;;24.80;18.20;;;;;;;16.12;71.01;99857.81;139020;1184;108430;-77
2021/10/20 08:28:44;;;;;;;17.10;13.20;;;;;;;16.19;70.77;99861.67;139042;1184;108457;-80
2021/10/20 08:31:49;;;;;;;18.90;14.30;;;;;;;16.24;70.73;99848.34;139104;1184;107465;-80
2021/10/20 08:34:55;;;;;;;20.00;15.10;;;;;;;16.32;70.55;99850.05;139015;1184;108563;-81
2021/10/20 08:38:03;;;;;;;30.30;21.50;;;;;;;16.34;70.50;99842.88;139079;1190;108555;-81
2021/10/20 08:41:09;;;;;;;10.30;7.40;;;;;;;16.33;70.07;99837.14;139115;1190;108441;-80
2021/10/20 08:44:16;;;;;;;114.80;41.10;;;;;;;16.32;70.31;99834.42;139224;1184;106985;-80
2021/10/20 08:47:22;;;;;;;23.80;13.60;;;;;;;16.36;70.30;99832.88;139091;1184;108463;-77
2021/10/20 08:50:31;;;;;;;14.80;9.70;;;;;;;16.40;70.05;99829.45;139048;1184;108641;-77
2021/10/20 08:53:36;;;;;;;11.60;8.70;;;;;;;16.46;70.12;99821.48;139087;1184;107524;-79
2021/10/20 08:56:44;;;;;;;10.00;7.50;;;;;;;16.54;69.97;99820.38;139125;1184;108405;-76
2021/10/20 08:59:49;;;;;;;13.70;9.60;;;;;;;16.62;69.75;99822.35;139049;1184;108240;-76
2021/10/20 09:02:55;;;;;;;15.50;11.60;;;;;;;16.69;69.26;99814.88;139066;1184;108362;-78
2021/10/20 09:06:00;;;;;;;13.80;10.40;;;;;;;16.74;69.50;99805.88;139064;1178;108559;-78
2021/10/20 09:09:08;;;;;;;9.90;7.20;;;;;;;16.86;69.59;99804.36;139013;1183;108584;-78
2021/10/20 09:12:13;;;;;;;40.60;20.20;;;;;;;16.99;69.53;99805.66;139017;1190;108402;-77
2021/10/20 09:15:21;;;;;;;22.80;14.50;;;;;;;17.11;69.64;99796.88;138962;1190;108645;-77
2021/10/20 09:18:26;;;;;;;11.90;9.00;;;;;;;17.20;69.31;99794.64;138999;1184;109258;-78
2021/10/20 09:21:46;;;;;;;9.50;7.80;;;;;;;17.30;69.28;99800.07;138978;1190;107398;-79
2021/10/20 09:24:51;;;;;;;10.00;6.80;;;;;;;17.39;68.99;99791.47;139074;1184;108172;-76
2021/10/20 09:27:59;;;;;;;23.60;18.20;;;;;;;17.48;68.94;99789.94;138986;1184;108461;-82
2021/10/20 09:31:06;;;;;;;9.90;8.10;;;;;;;17.55;68.65;99794.77;139096;1184;108418;-79
2021/10/20 09:34:11;;;;;;;10.20;6.20;;;;;;;17.58;68.48;99796.27;138960;1189;108655;-81
2021/10/20 09:37:19;;;;;;;8.20;5.90;;;;;;;17.65;68.60;99799.11;139098;1190;108711;-79
2021/10/20 09:40:25;;;;;;;9.00;6.00;;;;;;;17.72;68.14;99791.71;138971;1184;108581;-79
2021/10/20 09:43:31;;;;;;;7.30;5.60;;;;;;;17.80;67.92;99786.46;138986;1183;108543;-79
2021/10/20 09:46:39;;;;;;;7.50;5.70;;;;;;;17.88;68.12;99779.83;138923;1184;108409;-79
2021/10/20 09:49:54;;;;;;;8.40;5.70;;;;;;;17.97;68.12;99774.86;139021;1190;107451;-79
2021/10/20 09:52:59;;;;;;;6.90;5.40;;;;;;;18.06;67.64;99769.82;139028;1184;107238;-79
2021/10/20 09:56:19;;;;;;;7.30;5.80;;;;;;;18.08;67.36;99763.30;138985;1190;108586;-79
2021/10/20 09:59:25;;;;;;;6.30;5.20;;;;;;;18.10;67.40;99757.48;138948;1183;108307;-81
2021/10/20 10:02:30;;;;;;;7.10;5.70;;;;;;;18.13;67.16;99759.24;138975;1183;107519;-79
2021/10/20 10:05:37;;;;;;;8.30;5.80;;;;;;;18.14;67.33;99750.85;138982;1190;108398;-79
2021/10/20 10:08:43;;;;;;;6.10;5.40;;;;;;;18.16;67.26;99750.93;139007;1183;106661;-82
2021/10/20 10:11:53;;;;;;;9.20;5.20;;;;;;;18.20;67.09;99750.70;139547;1190;108582;-84
2021/10/20 10:15:05;;;;;;;7.10;5.50;;;;;;;18.21;67.27;99748.91;139170;1184;108560;-84
2021/10/20 10:18:12;;;;;;;7.70;5.50;;;;;;;18.22;67.21;99749.69;139557;1190;108501;-81
2021/10/20 10:21:35;;;;;;;8.20;5.70;;;;;;;18.20;66.76;99747.70;139159;1183;108471;-82
2021/10/20 10:24:42;;;;;;;7.50;5.40;;;;;;;18.20;66.91;99743.34;139240;1183;107421;-84
2021/10/20 10:28:06;;;;;;;6.50;5.50;;;;;;;18.27;66.92;99743.89;139374;1183;109115;-81
2021/10/20 10:31:12;;;;;;;6.60;5.10;;;;;;;18.34;66.53;99737.04;139146;1184;108437;-78
2021/10/20 10:34:26;;;;;;;7.10;5.10;;;;;;;18.40;66.57;99732.02;139083;1183;107086;-79
2021/10/20 10:37:34;;;;;;;7.20;5.30;;;;;;;18.46;66.46;99727.94;139038;1184;108340;-80
2021/10/20 10:40:40;;;;;;;8.30;4.90;;;;;;;18.52;66.51;99728.86;139059;1184;108374;-79
2021/10/20 10:44:12;;;;;;;7.80;6.10;;;;;;;18.56;66.33;99726.09;139155;1184;108250;-80
2021/10/20 10:47:21;;;;;;;8.80;5.40;;;;;;;18.56;66.07;99721.60;139165;1190;107399;-81
2021/10/20 10:50:40;;;;;;;7.30;5.40;;;;;;;18.57;66.16;99714.33;139230;1183;108749;-79
2021/10/20 10:53:53;;;;;;;7.70;5.20;;;;;;;18.61;65.86;99704.02;139042;1183;108579;-80
2021/10/20 10:57:12;;;;;;;6.20;5.00;;;;;;;18.65;65.91;99697.52;139132;1190;108425;-79
2021/10/20 11:00:47;;;;;;;8.20;5.90;;;;;;;18.68;65.66;99697.77;138999;1184;108658;-79
2021/10/20 11:04:17;;;;;;;7.10;5.00;;;;;;;18.71;65.28;99683.72;138992;1183;108337;-79
2021/10/20 11:07:25;;;;;;;6.30;5.10;;;;;;;18.71;65.24;99676.64;139094;1190;108711;-79
2021/10/20 11:10:32;;;;;;;8.30;4.90;;;;;;;18.69;65.25;99669.84;138985;1183;108177;-79
2021/10/20 11:13:39;;;;;;;7.50;5.10;;;;;;;18.68;65.54;99669.84;139130;1190;108396;-81
2021/10/20 11:16:48;;;;;;;8.90;5.30;;;;;;;18.69;65.62;99661.98;139138;1190;108612;-79
2021/10/20 11:19:54;;;;;;;7.70;4.80;;;;;;;18.70;65.44;99655.36;139114;1190;108420;-79
2021/10/20 11:23:05;;;;;;;8.10;4.70;;;;;;;18.72;65.45;99655.39;138965;1190;108352;-79
2021/10/20 11:26:10;;;;;;;6.20;4.60;;;;;;;18.77;65.33;99649.44;138979;1183;108294;-80
2021/10/20 11:29:16;;;;;;;6.20;4.90;;;;;;;18.84;65.05;99649.61;139114;1183;108371;-79
2021/10/20 11:32:23;;;;;;;5.60;4.80;;;;;;;18.91;64.98;99644.64;138984;1183;108540;-78
2021/10/20 11:35:30;;;;;;;6.20;4.30;;;;;;;18.95;64.94;99638.45;138987;1183;108477;-77
2021/10/20 11:38:36;;;;;;;6.30;4.80;;;;;;;18.99;64.95;99634.45;139012;1183;107328;-81
2021/10/20 11:41:50;;;;;;;6.40;4.50;;;;;;;19.04;64.99;99637.11;138991;1190;108421;-78
2021/10/20 11:45:02;;;;;;;6.90;4.80;;;;;;;19.07;64.48;99631.66;139038;1183;108746;-77
2021/10/20 11:48:06;;;;;;;;;;;;;;;19.05;64.52;99626.33;138965;1195;108479;-78
2021/10/20 11:51:11;;;;;;;8.50;4.60;;;;;;;19.05;64.22;99619.55;139025;1184;107595;-79
2021/10/20 11:54:18;;;;;;;6.50;4.80;;;;;;;19.02;64.12;99617.23;138997;1183;108671;-79
2021/10/20 11:57:24;;;;;;;7.00;4.80;;;;;;;19.00;64.36;99609.02;139197;1182;108387;-81
2021/10/20 12:00:34;;;;;;;6.40;4.70;;;;;;;19.01;64.20;99611.42;138991;1182;108399;-81
2021/10/20 12:03:43;;;;;;;6.10;4.80;;;;;;;19.01;64.11;99607.55;139164;1183;108117;-81
2021/10/20 12:06:52;;;;;;;6.00;4.50;;;;;;;19.03;64.12;99604.20;139735;1190;107513;-82
2021/10/20 12:09:59;;;;;;;4.70;4.20;;;;;;;19.09;64.12;99602.19;139714;1184;108349;-84
2021/10/20 12:13:07;;;;;;;8.20;4.50;;;;;;;19.16;63.87;99594.29;139580;1183;108969;-81
2021/10/20 12:16:15;;;;;;;7.80;4.80;;;;;;;19.23;63.79;99594.29;139270;1190;107432;-81
2021/10/20 12:19:23;;;;;;;7.00;4.70;;;;;;;19.32;64.00;99592.48;139220;1183;108300;-81
2021/10/20 12:22:30;;;;;;;5.30;4.20;;;;;;;19.42;63.45;99586.48;139218;1190;107493;-82
2021/10/20 12:25:35;;;;;;;6.20;4.20;;;;;;;19.51;63.56;99574.98;139209;1190;108485;-81
2021/10/20 12:28:42;;;;;;;6.60;4.60;;;;;;;19.58;63.26;99568.80;139038;1190;108593;-82
2021/10/20 12:31:50;;;;;;;6.60;4.40;;;;;;;19.61;63.13;99567.05;139117;1183;108442;-81
2021/10/20 12:34:57;;;;;;;5.00;4.30;;;;;;;19.59;62.96;99558.01;139085;1183;108418;-81
2021/10/20 12:38:05;;;;;;;5.60;4.50;;;;;;;19.53;62.50;99549.75;139238;1184;108455;-81
2021/10/20 12:41:12;;;;;;;11.80;8.80;;;;;;;19.51;63.05;99543.41;139127;1184;107329;-81
2021/10/20 12:44:18;;;;;;;43.70;23.30;;;;;;;19.51;62.79;99538.04;139157;1196;108437;-81
2021/10/20 12:47:28;;;;;;;24.10;16.50;;;;;;;19.49;62.86;99527.55;139135;1183;108401;-81
2021/10/20 12:50:35;;;;;;;26.70;17.60;;;;;;;19.48;62.78;99521.89;139208;1182;108333;-81
2021/10/20 12:53:45;;;;;;;60.20;29.40;;;;;;;19.46;62.61;99514.05;139201;1183;108533;-79
2021/10/20 12:56:57;;;;;;;27.90;16.20;;;;;;;19.45;62.42;99505.84;139210;1190;108409;-81
2021/10/20 13:00:09;;;;;;;14.70;10.00;;;;;;;19.43;62.34;99494.23;139392;1184;108439;-80
2021/10/20 13:03:15;;;;;;;8.30;5.80;;;;;;;19.44;62.51;99482.40;139154;1183;108607;-80
2021/10/20 13:06:20;;;;;;;8.30;6.10;;;;;;;19.42;62.18;99482.57;139333;1189;108506;-83
2021/10/20 13:09:28;;;;;;;7.70;5.00;;;;;;;19.40;62.19;99474.56;139381;1190;108574;-80
2021/10/20 13:12:34;;;;;;;6.40;4.00;;;;;;;19.39;62.03;99475.19;139163;1181;108529;-79
2021/10/20 13:15:39;;;;;;;9.40;6.40;;;;;;;19.38;62.17;99474.11;139257;1183;108244;-85
2021/10/20 13:18:44;;;;;;;7.00;5.50;;;;;;;19.37;62.02;99464.68;139660;1184;108478;-84
2021/10/20 13:21:50;;;;;;;6.30;5.10;;;;;;;19.36;62.09;99463.25;139352;1182;108469;-82
2021/10/20 13:24:55;;;;;;;5.80;3.90;;;;;;;19.36;61.91;99467.08;139373;1190;108432;-81
2021/10/20 13:28:02;;;;;;;5.80;3.70;;;;;;;19.34;61.70;99452.91;139417;1183;108442;-77
2021/10/20 13:31:07;;;;;;;4.40;3.40;;;;;;;19.29;61.79;99445.75;139251;1182;108387;-77
2021/10/20 13:34:13;;;;;;;5.20;3.50;;;;;;;19.25;61.83;99440.02;139393;1184;108445;-80
2021/10/20 13:37:19;;;;;;;10.00;7.00;;;;;;;19.18;61.88;99439.91;139041;1184;108397;-83
2021/10/20 13:40:25;;;;;;;17.70;13.20;;;;;;;19.12;61.88;99443.90;139568;1183;108390;-81
2021/10/20 13:43:30;;;;;;;51.60;27.80;;;;;;;19.08;61.91;99437.42;139155;1183;108629;-84
2021/10/20 13:46:36;;;;;;;15.20;9.60;;;;;;;19.02;61.85;99440.00;139355;1183;108618;-82
2021/10/20 13:49:42;;;;;;;12.50;7.00;;;;;;;18.97;61.87;99436.08;139509;1189;108657;-80
2021/10/20 13:52:48;;;;;;;16.80;10.70;;;;;;;18.91;61.57;99436.98;139474;1190;108647;-84
2021/10/20 13:55:54;;;;;;;44.80;25.10;;;;;;;18.85;61.62;99433.95;139212;1183;108733;-83
2021/10/20 13:59:00;;;;;;;32.60;20.10;;;;;;;18.78;61.57;99431.89;139194;1184;107437;-82
2021/10/20 14:02:05;;;;;;;25.40;16.20;;;;;;;18.71;61.44;99430.28;139068;1183;108252;-80
2021/10/20 14:05:12;;;;;;;12.70;8.60;;;;;;;18.64;61.39;99427.43;139197;1183;107850;-79